sensor_id;sensor_type;location;lat;lon;timestamp;P1;durP1;ratioP1;P2;durP2;ratioP2
2305;SDS011;1161;51.922;8.896;2023-02-11T00:00:19;104.50;;;40.40;;
2305;SDS011;1161;51.922;8.896;2023-02-11T00:02:46;97.43;;;39.83;;
2305;SDS011;1161;51.922;8.896;2023-02-11T00:05:13;118.43;;;39.77;;
2305;SDS011;1161;51.922;8.896;2023-02-11T00:07:40;98.53;;;42.43;;
2305;SDS011;1161;51.922;8.896;2023-02-11T00:10:08;107.43;;;40.40;;
2305;SDS011;1161;51.922;8.896;2023-02-11T00:12:35;104.13;;;42.53;;
2305;SDS011;1161;51.922;8.896;2023-02-11T00:15:02;120.57;;;42.80;;
2305;SDS011;1161;51.922;8.896;2023-02-11T00:17:29;100.70;;;41.10;;
2305;SDS011;1161;51.922;8.896;2023-02-11T00:19:57;110.27;;;41.40;;
2305;SDS011;1161;51.922;8.896;2023-02-11T00:22:23;105.90;;;40.90;;
2305;SDS011;1161;51.922;8.896;2023-02-11T00:24:51;97.10;;;40.17;;
2305;SDS011;1161;51.922;8.896;2023-02-11T00:27:18;126.33;;;45.43;;
2305;SDS011;1161;51.922;8.896;2023-02-11T00:29:45;114.50;;;41.93;;
2305;SDS011;1161;51.922;8.896;2023-02-11T00:32:11;121.37;;;44.67;;
2305;SDS011;1161;51.922;8.896;2023-02-11T00:34:38;107.80;;;43.20;;
2305;SDS011;1161;51.922;8.896;2023-02-11T00:37:05;124.33;;;45.50;;
2305;SDS011;1161;51.922;8.896;2023-02-11T00:39:31;89.77;;;41.00;;
2305;SDS011;1161;51.922;8.896;2023-02-11T00:41:59;116.37;;;40.70;;
2305;SDS011;1161;51.922;8.896;2023-02-11T00:44:26;113.97;;;41.50;;
2305;SDS011;1161;51.922;8.896;2023-02-11T00:46:53;121.27;;;45.10;;
2305;SDS011;1161;51.922;8.896;2023-02-11T00:49:19;103.40;;;43.07;;
2305;SDS011;1161;51.922;8.896;2023-02-11T00:51:46;104.57;;;43.43;;
2305;SDS011;1161;51.922;8.896;2023-02-11T00:54:12;116.20;;;44.90;;
2305;SDS011;1161;51.922;8.896;2023-02-11T00:56:39;116.27;;;44.37;;
2305;SDS011;1161;51.922;8.896;2023-02-11T00:59:07;113.50;;;44.63;;
2305;SDS011;1161;51.922;8.896;2023-02-11T01:01:34;117.63;;;45.47;;
2305;SDS011;1161;51.922;8.896;2023-02-11T01:04:01;121.13;;;46.40;;
2305;SDS011;1161;51.922;8.896;2023-02-11T01:06:27;114.07;;;46.40;;
2305;SDS011;1161;51.922;8.896;2023-02-11T01:08:54;128.57;;;44.80;;
2305;SDS011;1161;51.922;8.896;2023-02-11T01:11:21;113.90;;;46.00;;
2305;SDS011;1161;51.922;8.896;2023-02-11T01:13:48;119.20;;;45.63;;
2305;SDS011;1161;51.922;8.896;2023-02-11T01:16:17;119.70;;;45.03;;
2305;SDS011;1161;51.922;8.896;2023-02-11T01:18:45;119.77;;;47.10;;
2305;SDS011;1161;51.922;8.896;2023-02-11T01:21:12;107.67;;;42.90;;
2305;SDS011;1161;51.922;8.896;2023-02-11T01:23:39;134.77;;;47.77;;
2305;SDS011;1161;51.922;8.896;2023-02-11T01:26:05;115.13;;;46.93;;
2305;SDS011;1161;51.922;8.896;2023-02-11T01:28:32;106.10;;;46.00;;
2305;SDS011;1161;51.922;8.896;2023-02-11T01:30:59;119.53;;;46.07;;
2305;SDS011;1161;51.922;8.896;2023-02-11T01:33:27;133.03;;;47.63;;
2305;SDS011;1161;51.922;8.896;2023-02-11T01:35:54;132.53;;;49.97;;
2305;SDS011;1161;51.922;8.896;2023-02-11T01:38:22;125.50;;;47.53;;
2305;SDS011;1161;51.922;8.896;2023-02-11T01:40:50;152.87;;;49.53;;
2305;SDS011;1161;51.922;8.896;2023-02-11T01:43:18;131.03;;;48.57;;
2305;SDS011;1161;51.922;8.896;2023-02-11T01:48:34;123.93;;;48.57;;
2305;SDS011;1161;51.922;8.896;2023-02-11T01:51:04;106.97;;;45.33;;
2305;SDS011;1161;51.922;8.896;2023-02-11T01:53:33;125.20;;;50.87;;
2305;SDS011;1161;51.922;8.896;2023-02-11T01:56:18;115.13;;;46.07;;
2305;SDS011;1161;51.922;8.896;2023-02-11T01:59:05;125.20;;;50.57;;
2305;SDS011;1161;51.922;8.896;2023-02-11T02:01:34;126.07;;;51.47;;
2305;SDS011;1161;51.922;8.896;2023-02-11T02:04:04;119.57;;;43.50;;
2305;SDS011;1161;51.922;8.896;2023-02-11T02:06:32;121.23;;;45.93;;
2305;SDS011;1161;51.922;8.896;2023-02-11T02:09:01;124.37;;;47.10;;
2305;SDS011;1161;51.922;8.896;2023-02-11T02:11:29;111.10;;;44.10;;
2305;SDS011;1161;51.922;8.896;2023-02-11T02:13:55;121.57;;;47.70;;
2305;SDS011;1161;51.922;8.896;2023-02-11T02:16:23;110.93;;;45.77;;
2305;SDS011;1161;51.922;8.896;2023-02-11T02:18:54;105.33;;;46.63;;
2305;SDS011;1161;51.922;8.896;2023-02-11T02:21:38;127.70;;;50.10;;
2305;SDS011;1161;51.922;8.896;2023-02-11T02:24:37;118.17;;;48.07;;
2305;SDS011;1161;51.922;8.896;2023-02-11T02:30:16;154.87;;;50.97;;
2305;SDS011;1161;51.922;8.896;2023-02-11T02:36:03;121.50;;;46.80;;
2305;SDS011;1161;51.922;8.896;2023-02-11T02:38:34;134.40;;;48.67;;
2305;SDS011;1161;51.922;8.896;2023-02-11T02:41:05;114.63;;;49.60;;
2305;SDS011;1161;51.922;8.896;2023-02-11T02:43:34;133.53;;;49.90;;
2305;SDS011;1161;51.922;8.896;2023-02-11T02:46:12;134.47;;;51.80;;
2305;SDS011;1161;51.922;8.896;2023-02-11T02:48:41;142.40;;;50.73;;
2305;SDS011;1161;51.922;8.896;2023-02-11T02:51:12;110.23;;;47.50;;
2305;SDS011;1161;51.922;8.896;2023-02-11T02:53:47;123.07;;;48.40;;
2305;SDS011;1161;51.922;8.896;2023-02-11T02:56:21;142.53;;;53.17;;
2305;SDS011;1161;51.922;8.896;2023-02-11T03:01:42;129.13;;;49.90;;
2305;SDS011;1161;51.922;8.896;2023-02-11T03:04:18;114.80;;;43.83;;
2305;SDS011;1161;51.922;8.896;2023-02-11T03:06:47;134.93;;;50.60;;
2305;SDS011;1161;51.922;8.896;2023-02-11T03:09:19;113.57;;;46.27;;
2305;SDS011;1161;51.922;8.896;2023-02-11T03:11:47;143.93;;;51.47;;
2305;SDS011;1161;51.922;8.896;2023-02-11T03:14:14;130.50;;;48.70;;
2305;SDS011;1161;51.922;8.896;2023-02-11T03:16:43;146.77;;;55.67;;
2305;SDS011;1161;51.922;8.896;2023-02-11T03:19:11;129.77;;;49.70;;
2305;SDS011;1161;51.922;8.896;2023-02-11T03:21:40;117.17;;;46.93;;
2305;SDS011;1161;51.922;8.896;2023-02-11T03:24:09;124.43;;;45.27;;
2305;SDS011;1161;51.922;8.896;2023-02-11T03:26:39;145.83;;;48.90;;
2305;SDS011;1161;51.922;8.896;2023-02-11T03:29:09;144.00;;;50.70;;
2305;SDS011;1161;51.922;8.896;2023-02-11T03:31:42;146.87;;;52.67;;
2305;SDS011;1161;51.922;8.896;2023-02-11T03:34:14;129.13;;;48.30;;
2305;SDS011;1161;51.922;8.896;2023-02-11T03:36:45;137.97;;;49.60;;
2305;SDS011;1161;51.922;8.896;2023-02-11T03:39:17;157.80;;;49.00;;
2305;SDS011;1161;51.922;8.896;2023-02-11T03:41:46;120.97;;;47.37;;
2305;SDS011;1161;51.922;8.896;2023-02-11T03:44:14;127.70;;;49.40;;
2305;SDS011;1161;51.922;8.896;2023-02-11T03:46:43;126.00;;;50.80;;
2305;SDS011;1161;51.922;8.896;2023-02-11T03:49:13;112.70;;;46.20;;
2305;SDS011;1161;51.922;8.896;2023-02-11T03:51:40;113.20;;;44.47;;
2305;SDS011;1161;51.922;8.896;2023-02-11T03:54:20;123.87;;;48.27;;
2305;SDS011;1161;51.922;8.896;2023-02-11T03:56:50;115.00;;;44.13;;
2305;SDS011;1161;51.922;8.896;2023-02-11T03:59:19;126.57;;;50.47;;
2305;SDS011;1161;51.922;8.896;2023-02-11T04:01:46;126.90;;;46.40;;
2305;SDS011;1161;51.922;8.896;2023-02-11T04:04:13;143.07;;;50.20;;
2305;SDS011;1161;51.922;8.896;2023-02-11T04:06:40;103.43;;;48.80;;
2305;SDS011;1161;51.922;8.896;2023-02-11T04:09:07;114.70;;;45.13;;
2305;SDS011;1161;51.922;8.896;2023-02-11T04:11:36;121.77;;;51.00;;
2305;SDS011;1161;51.922;8.896;2023-02-11T04:14:03;118.70;;;49.17;;
2305;SDS011;1161;51.922;8.896;2023-02-11T04:16:30;125.57;;;48.90;;
2305;SDS011;1161;51.922;8.896;2023-02-11T04:18:59;142.80;;;51.43;;
2305;SDS011;1161;51.922;8.896;2023-02-11T04:21:26;142.80;;;49.03;;
2305;SDS011;1161;51.922;8.896;2023-02-11T04:23:53;114.37;;;48.67;;
2305;SDS011;1161;51.922;8.896;2023-02-11T04:26:20;119.80;;;48.80;;
2305;SDS011;1161;51.922;8.896;2023-02-11T04:28:48;147.37;;;48.47;;
2305;SDS011;1161;51.922;8.896;2023-02-11T04:31:15;141.73;;;51.87;;
2305;SDS011;1161;51.922;8.896;2023-02-11T04:33:43;151.53;;;53.80;;
2305;SDS011;1161;51.922;8.896;2023-02-11T04:36:11;140.67;;;53.23;;
2305;SDS011;1161;51.922;8.896;2023-02-11T04:38:38;141.13;;;56.00;;
2305;SDS011;1161;51.922;8.896;2023-02-11T04:41:07;161.10;;;57.30;;
2305;SDS011;1161;51.922;8.896;2023-02-11T04:43:34;152.20;;;56.67;;
2305;SDS011;1161;51.922;8.896;2023-02-11T04:46:04;175.43;;;63.83;;
2305;SDS011;1161;51.922;8.896;2023-02-11T04:48:31;177.27;;;61.00;;
2305;SDS011;1161;51.922;8.896;2023-02-11T04:51:00;198.17;;;67.87;;
2305;SDS011;1161;51.922;8.896;2023-02-11T04:53:33;171.20;;;59.87;;
2305;SDS011;1161;51.922;8.896;2023-02-11T04:56:00;177.40;;;62.90;;
2305;SDS011;1161;51.922;8.896;2023-02-11T04:58:29;153.50;;;59.00;;
2305;SDS011;1161;51.922;8.896;2023-02-11T05:01:04;143.13;;;60.43;;
2305;SDS011;1161;51.922;8.896;2023-02-11T05:03:32;186.53;;;64.90;;
2305;SDS011;1161;51.922;8.896;2023-02-11T05:06:00;157.97;;;60.97;;
2305;SDS011;1161;51.922;8.896;2023-02-11T05:08:29;175.03;;;63.67;;
2305;SDS011;1161;51.922;8.896;2023-02-11T05:10:56;187.23;;;62.17;;
2305;SDS011;1161;51.922;8.896;2023-02-11T05:13:23;200.03;;;72.27;;
2305;SDS011;1161;51.922;8.896;2023-02-11T05:16:10;172.80;;;60.73;;
2305;SDS011;1161;51.922;8.896;2023-02-11T05:18:37;179.70;;;61.17;;
2305;SDS011;1161;51.922;8.896;2023-02-11T05:21:05;186.97;;;69.40;;
2305;SDS011;1161;51.922;8.896;2023-02-11T05:23:33;191.53;;;66.23;;
2305;SDS011;1161;51.922;8.896;2023-02-11T05:26:00;177.23;;;63.93;;
2305;SDS011;1161;51.922;8.896;2023-02-11T05:28:27;186.87;;;61.97;;
2305;SDS011;1161;51.922;8.896;2023-02-11T05:30:54;202.37;;;69.00;;
2305;SDS011;1161;51.922;8.896;2023-02-11T05:33:23;175.83;;;60.77;;
2305;SDS011;1161;51.922;8.896;2023-02-11T05:35:50;154.13;;;61.17;;
2305;SDS011;1161;51.922;8.896;2023-02-11T05:38:17;194.50;;;68.20;;
2305;SDS011;1161;51.922;8.896;2023-02-11T05:40:44;136.77;;;56.27;;
2305;SDS011;1161;51.922;8.896;2023-02-11T05:43:14;153.73;;;60.90;;
2305;SDS011;1161;51.922;8.896;2023-02-11T05:45:41;168.47;;;60.13;;
2305;SDS011;1161;51.922;8.896;2023-02-11T05:48:08;156.97;;;59.30;;
2305;SDS011;1161;51.922;8.896;2023-02-11T05:50:36;144.40;;;56.40;;
2305;SDS011;1161;51.922;8.896;2023-02-11T05:53:03;174.63;;;64.57;;
2305;SDS011;1161;51.922;8.896;2023-02-11T05:55:31;184.93;;;63.20;;
2305;SDS011;1161;51.922;8.896;2023-02-11T05:58:03;169.37;;;60.33;;
2305;SDS011;1161;51.922;8.896;2023-02-11T06:00:31;186.67;;;67.77;;
2305;SDS011;1161;51.922;8.896;2023-02-11T06:02:58;176.70;;;61.63;;
2305;SDS011;1161;51.922;8.896;2023-02-11T06:05:26;148.83;;;56.90;;
2305;SDS011;1161;51.922;8.896;2023-02-11T06:07:55;170.63;;;57.87;;
2305;SDS011;1161;51.922;8.896;2023-02-11T06:10:22;178.13;;;62.00;;
2305;SDS011;1161;51.922;8.896;2023-02-11T06:12:49;194.50;;;65.63;;
2305;SDS011;1161;51.922;8.896;2023-02-11T06:15:16;179.87;;;65.30;;
2305;SDS011;1161;51.922;8.896;2023-02-11T06:17:43;180.57;;;61.73;;
2305;SDS011;1161;51.922;8.896;2023-02-11T06:20:12;159.00;;;63.00;;
2305;SDS011;1161;51.922;8.896;2023-02-11T06:22:38;165.20;;;61.37;;
2305;SDS011;1161;51.922;8.896;2023-02-11T06:25:07;149.47;;;58.57;;
2305;SDS011;1161;51.922;8.896;2023-02-11T06:27:35;205.90;;;64.73;;
2305;SDS011;1161;51.922;8.896;2023-02-11T06:30:03;193.73;;;66.80;;
2305;SDS011;1161;51.922;8.896;2023-02-11T06:32:31;191.53;;;60.77;;
2305;SDS011;1161;51.922;8.896;2023-02-11T06:34:58;182.93;;;65.60;;
2305;SDS011;1161;51.922;8.896;2023-02-11T06:37:26;181.10;;;63.57;;
2305;SDS011;1161;51.922;8.896;2023-02-11T06:39:53;163.63;;;56.37;;
2305;SDS011;1161;51.922;8.896;2023-02-11T06:42:21;201.80;;;65.00;;
2305;SDS011;1161;51.922;8.896;2023-02-11T06:44:48;171.30;;;56.90;;
2305;SDS011;1161;51.922;8.896;2023-02-11T06:47:15;179.43;;;58.23;;
2305;SDS011;1161;51.922;8.896;2023-02-11T06:49:41;190.40;;;67.47;;
2305;SDS011;1161;51.922;8.896;2023-02-11T06:52:08;172.53;;;64.70;;
2305;SDS011;1161;51.922;8.896;2023-02-11T06:54:36;158.73;;;57.13;;
2305;SDS011;1161;51.922;8.896;2023-02-11T06:57:05;186.23;;;58.30;;
2305;SDS011;1161;51.922;8.896;2023-02-11T06:59:34;173.23;;;59.17;;
2305;SDS011;1161;51.922;8.896;2023-02-11T07:02:01;169.10;;;60.90;;
2305;SDS011;1161;51.922;8.896;2023-02-11T07:04:28;189.40;;;62.67;;
2305;SDS011;1161;51.922;8.896;2023-02-11T07:06:56;189.03;;;65.13;;
2305;SDS011;1161;51.922;8.896;2023-02-11T07:09:24;184.67;;;63.13;;
2305;SDS011;1161;51.922;8.896;2023-02-11T07:11:54;174.73;;;63.60;;
2305;SDS011;1161;51.922;8.896;2023-02-11T07:14:24;174.20;;;55.90;;
2305;SDS011;1161;51.922;8.896;2023-02-11T07:16:55;196.13;;;64.17;;
2305;SDS011;1161;51.922;8.896;2023-02-11T07:19:22;201.23;;;63.73;;
2305;SDS011;1161;51.922;8.896;2023-02-11T07:21:49;182.80;;;64.90;;
2305;SDS011;1161;51.922;8.896;2023-02-11T07:24:16;196.70;;;62.17;;
2305;SDS011;1161;51.922;8.896;2023-02-11T07:26:43;193.90;;;59.83;;
2305;SDS011;1161;51.922;8.896;2023-02-11T07:29:10;198.70;;;61.20;;
2305;SDS011;1161;51.922;8.896;2023-02-11T07:31:38;216.40;;;66.13;;
2305;SDS011;1161;51.922;8.896;2023-02-11T07:34:14;182.93;;;59.60;;
2305;SDS011;1161;51.922;8.896;2023-02-11T07:36:41;196.73;;;62.40;;
2305;SDS011;1161;51.922;8.896;2023-02-11T07:39:09;198.07;;;58.90;;
2305;SDS011;1161;51.922;8.896;2023-02-11T07:41:36;193.07;;;65.20;;
2305;SDS011;1161;51.922;8.896;2023-02-11T07:44:03;206.07;;;61.27;;
2305;SDS011;1161;51.922;8.896;2023-02-11T07:46:30;189.87;;;62.13;;
2305;SDS011;1161;51.922;8.896;2023-02-11T07:48:58;156.87;;;57.60;;
2305;SDS011;1161;51.922;8.896;2023-02-11T07:51:27;200.80;;;57.90;;
2305;SDS011;1161;51.922;8.896;2023-02-11T07:53:54;171.37;;;54.47;;
2305;SDS011;1161;51.922;8.896;2023-02-11T07:56:22;185.27;;;59.97;;
2305;SDS011;1161;51.922;8.896;2023-02-11T07:58:49;184.10;;;64.53;;
2305;SDS011;1161;51.922;8.896;2023-02-11T08:01:16;189.47;;;60.17;;
2305;SDS011;1161;51.922;8.896;2023-02-11T08:03:46;186.50;;;68.20;;
2305;SDS011;1161;51.922;8.896;2023-02-11T08:06:14;179.37;;;61.33;;
2305;SDS011;1161;51.922;8.896;2023-02-11T08:08:44;200.87;;;65.23;;
2305;SDS011;1161;51.922;8.896;2023-02-11T08:11:11;169.40;;;59.53;;
2305;SDS011;1161;51.922;8.896;2023-02-11T08:13:39;198.03;;;68.97;;
2305;SDS011;1161;51.922;8.896;2023-02-11T08:16:06;174.33;;;61.57;;
2305;SDS011;1161;51.922;8.896;2023-02-11T08:18:43;176.43;;;62.77;;
2305;SDS011;1161;51.922;8.896;2023-02-11T08:21:10;177.63;;;63.10;;
2305;SDS011;1161;51.922;8.896;2023-02-11T08:23:36;149.70;;;58.90;;
2305;SDS011;1161;51.922;8.896;2023-02-11T08:26:05;191.57;;;58.73;;
2305;SDS011;1161;51.922;8.896;2023-02-11T08:28:35;173.33;;;59.20;;
2305;SDS011;1161;51.922;8.896;2023-02-11T08:31:03;204.70;;;60.83;;
2305;SDS011;1161;51.922;8.896;2023-02-11T08:33:31;196.73;;;61.40;;
2305;SDS011;1161;51.922;8.896;2023-02-11T08:35:58;199.83;;;62.00;;
2305;SDS011;1161;51.922;8.896;2023-02-11T08:38:26;178.60;;;61.27;;
2305;SDS011;1161;51.922;8.896;2023-02-11T08:40:52;176.97;;;62.63;;
2305;SDS011;1161;51.922;8.896;2023-02-11T08:43:20;178.67;;;61.80;;
2305;SDS011;1161;51.922;8.896;2023-02-11T08:45:47;204.90;;;64.30;;
2305;SDS011;1161;51.922;8.896;2023-02-11T08:48:14;189.30;;;62.80;;
2305;SDS011;1161;51.922;8.896;2023-02-11T08:50:40;197.17;;;62.70;;
2305;SDS011;1161;51.922;8.896;2023-02-11T08:53:07;164.83;;;55.70;;
2305;SDS011;1161;51.922;8.896;2023-02-11T08:55:34;167.60;;;61.67;;
2305;SDS011;1161;51.922;8.896;2023-02-11T08:58:00;210.07;;;63.90;;
2305;SDS011;1161;51.922;8.896;2023-02-11T09:00:29;189.17;;;60.77;;
2305;SDS011;1161;51.922;8.896;2023-02-11T09:02:56;172.80;;;61.73;;
2305;SDS011;1161;51.922;8.896;2023-02-11T09:05:23;182.07;;;64.97;;
2305;SDS011;1161;51.922;8.896;2023-02-11T09:07:49;216.70;;;65.53;;
2305;SDS011;1161;51.922;8.896;2023-02-11T09:10:16;221.13;;;70.67;;
2305;SDS011;1161;51.922;8.896;2023-02-11T09:12:43;230.73;;;65.40;;
2305;SDS011;1161;51.922;8.896;2023-02-11T09:15:10;182.50;;;64.83;;
2305;SDS011;1161;51.922;8.896;2023-02-11T09:17:38;193.57;;;62.83;;
2305;SDS011;1161;51.922;8.896;2023-02-11T09:20:05;209.67;;;63.27;;
2305;SDS011;1161;51.922;8.896;2023-02-11T09:22:32;201.90;;;68.70;;
2305;SDS011;1161;51.922;8.896;2023-02-11T09:24:59;191.47;;;69.10;;
2305;SDS011;1161;51.922;8.896;2023-02-11T09:27:26;189.27;;;63.10;;
2305;SDS011;1161;51.922;8.896;2023-02-11T09:29:53;205.33;;;63.27;;
2305;SDS011;1161;51.922;8.896;2023-02-11T09:32:19;224.93;;;66.77;;
2305;SDS011;1161;51.922;8.896;2023-02-11T09:34:47;197.00;;;62.07;;
2305;SDS011;1161;51.922;8.896;2023-02-11T09:37:14;198.17;;;60.60;;
2305;SDS011;1161;51.922;8.896;2023-02-11T09:39:40;185.53;;;62.77;;
2305;SDS011;1161;51.922;8.896;2023-02-11T09:42:09;226.40;;;66.27;;
2305;SDS011;1161;51.922;8.896;2023-02-11T09:45:00;202.83;;;65.17;;
2305;SDS011;1161;51.922;8.896;2023-02-11T09:47:29;213.07;;;71.93;;
2305;SDS011;1161;51.922;8.896;2023-02-11T09:49:59;197.50;;;61.67;;
2305;SDS011;1161;51.922;8.896;2023-02-11T09:52:29;188.77;;;62.60;;
2305;SDS011;1161;51.922;8.896;2023-02-11T09:55:01;200.27;;;61.70;;
2305;SDS011;1161;51.922;8.896;2023-02-11T09:57:31;205.97;;;59.20;;
2305;SDS011;1161;51.922;8.896;2023-02-11T09:59:59;229.47;;;61.20;;
2305;SDS011;1161;51.922;8.896;2023-02-11T10:02:28;184.37;;;62.53;;
2305;SDS011;1161;51.922;8.896;2023-02-11T10:07:55;216.57;;;61.13;;
2305;SDS011;1161;51.922;8.896;2023-02-11T10:10:30;169.07;;;58.97;;
2305;SDS011;1161;51.922;8.896;2023-02-11T10:13:05;189.00;;;64.63;;
2305;SDS011;1161;51.922;8.896;2023-02-11T10:15:41;224.80;;;66.87;;
2305;SDS011;1161;51.922;8.896;2023-02-11T10:18:23;201.70;;;59.77;;
2305;SDS011;1161;51.922;8.896;2023-02-11T10:21:03;194.90;;;61.87;;
2305;SDS011;1161;51.922;8.896;2023-02-11T10:23:36;169.87;;;56.63;;
2305;SDS011;1161;51.922;8.896;2023-02-11T10:26:07;179.67;;;59.03;;
2305;SDS011;1161;51.922;8.896;2023-02-11T10:28:37;226.30;;;61.20;;
2305;SDS011;1161;51.922;8.896;2023-02-11T10:31:06;192.23;;;59.37;;
2305;SDS011;1161;51.922;8.896;2023-02-11T10:33:35;164.13;;;60.70;;
2305;SDS011;1161;51.922;8.896;2023-02-11T10:36:09;197.47;;;60.33;;
2305;SDS011;1161;51.922;8.896;2023-02-11T10:38:36;183.43;;;53.47;;
2305;SDS011;1161;51.922;8.896;2023-02-11T10:41:03;198.43;;;59.17;;
2305;SDS011;1161;51.922;8.896;2023-02-11T10:43:30;192.80;;;58.20;;
2305;SDS011;1161;51.922;8.896;2023-02-11T10:45:58;175.73;;;54.10;;
2305;SDS011;1161;51.922;8.896;2023-02-11T10:48:36;202.00;;;59.83;;
2305;SDS011;1161;51.922;8.896;2023-02-11T10:51:12;173.20;;;55.23;;
2305;SDS011;1161;51.922;8.896;2023-02-11T10:53:41;177.70;;;54.20;;
2305;SDS011;1161;51.922;8.896;2023-02-11T10:56:09;156.27;;;50.57;;
2305;SDS011;1161;51.922;8.896;2023-02-11T10:58:39;154.47;;;52.40;;
2305;SDS011;1161;51.922;8.896;2023-02-11T11:01:06;156.70;;;52.97;;
2305;SDS011;1161;51.922;8.896;2023-02-11T11:03:35;159.37;;;53.77;;
2305;SDS011;1161;51.922;8.896;2023-02-11T11:06:04;142.87;;;49.70;;
2305;SDS011;1161;51.922;8.896;2023-02-11T11:08:44;128.53;;;48.43;;
2305;SDS011;1161;51.922;8.896;2023-02-11T11:11:12;145.67;;;49.23;;
2305;SDS011;1161;51.922;8.896;2023-02-11T11:13:41;148.90;;;52.57;;
2305;SDS011;1161;51.922;8.896;2023-02-11T11:16:18;143.67;;;48.03;;
2305;SDS011;1161;51.922;8.896;2023-02-11T11:18:47;133.57;;;45.10;;
2305;SDS011;1161;51.922;8.896;2023-02-11T11:21:15;147.57;;;47.77;;
2305;SDS011;1161;51.922;8.896;2023-02-11T11:23:53;150.67;;;46.77;;
2305;SDS011;1161;51.922;8.896;2023-02-11T11:26:22;127.63;;;44.87;;
2305;SDS011;1161;51.922;8.896;2023-02-11T11:28:50;113.60;;;42.30;;
2305;SDS011;1161;51.922;8.896;2023-02-11T11:31:20;116.50;;;39.27;;
2305;SDS011;1161;51.922;8.896;2023-02-11T11:33:48;117.03;;;42.13;;
2305;SDS011;1161;51.922;8.896;2023-02-11T11:36:18;112.83;;;38.87;;
2305;SDS011;1161;51.922;8.896;2023-02-11T11:38:47;129.97;;;44.70;;
2305;SDS011;1161;51.922;8.896;2023-02-11T11:41:21;141.20;;;46.37;;
2305;SDS011;1161;51.922;8.896;2023-02-11T11:44:01;120.67;;;46.70;;
2305;SDS011;1161;51.922;8.896;2023-02-11T11:46:32;145.07;;;52.97;;
2305;SDS011;1161;51.922;8.896;2023-02-11T11:49:06;137.87;;;50.17;;
2305;SDS011;1161;51.922;8.896;2023-02-11T11:51:40;129.73;;;46.37;;
2305;SDS011;1161;51.922;8.896;2023-02-11T11:54:08;133.90;;;48.80;;
2305;SDS011;1161;51.922;8.896;2023-02-11T11:56:40;136.03;;;48.97;;
2305;SDS011;1161;51.922;8.896;2023-02-11T11:59:12;151.30;;;51.07;;
2305;SDS011;1161;51.922;8.896;2023-02-11T12:01:44;137.77;;;48.80;;
2305;SDS011;1161;51.922;8.896;2023-02-11T12:04:23;154.13;;;53.80;;
2305;SDS011;1161;51.922;8.896;2023-02-11T12:07:00;145.57;;;48.70;;
2305;SDS011;1161;51.922;8.896;2023-02-11T12:09:34;122.10;;;49.20;;
2305;SDS011;1161;51.922;8.896;2023-02-11T12:12:10;135.40;;;50.20;;
2305;SDS011;1161;51.922;8.896;2023-02-11T12:14:48;155.30;;;51.17;;
2305;SDS011;1161;51.922;8.896;2023-02-11T12:17:24;161.70;;;56.30;;
2305;SDS011;1161;51.922;8.896;2023-02-11T12:20:01;130.87;;;51.50;;
2305;SDS011;1161;51.922;8.896;2023-02-11T12:22:40;152.23;;;51.60;;
2305;SDS011;1161;51.922;8.896;2023-02-11T12:25:20;171.70;;;54.60;;
2305;SDS011;1161;51.922;8.896;2023-02-11T12:27:55;146.30;;;50.07;;
2305;SDS011;1161;51.922;8.896;2023-02-11T12:30:38;146.80;;;49.70;;
2305;SDS011;1161;51.922;8.896;2023-02-11T12:33:11;163.03;;;51.10;;
2305;SDS011;1161;51.922;8.896;2023-02-11T12:35:43;148.10;;;51.90;;
2305;SDS011;1161;51.922;8.896;2023-02-11T12:38:22;155.97;;;52.87;;
2305;SDS011;1161;51.922;8.896;2023-02-11T12:41:03;161.23;;;49.50;;
2305;SDS011;1161;51.922;8.896;2023-02-11T12:43:38;143.40;;;45.07;;
2305;SDS011;1161;51.922;8.896;2023-02-11T12:46:10;142.53;;;52.67;;
2305;SDS011;1161;51.922;8.896;2023-02-11T12:49:05;172.13;;;53.23;;
2305;SDS011;1161;51.922;8.896;2023-02-11T12:51:45;167.00;;;54.17;;
2305;SDS011;1161;51.922;8.896;2023-02-11T12:54:19;154.67;;;53.17;;
2305;SDS011;1161;51.922;8.896;2023-02-11T12:56:50;182.40;;;54.10;;
2305;SDS011;1161;51.922;8.896;2023-02-11T12:59:27;165.63;;;53.77;;
2305;SDS011;1161;51.922;8.896;2023-02-11T13:01:59;162.03;;;52.43;;
2305;SDS011;1161;51.922;8.896;2023-02-11T13:04:32;144.03;;;50.00;;
2305;SDS011;1161;51.922;8.896;2023-02-11T13:07:01;156.93;;;49.07;;
2305;SDS011;1161;51.922;8.896;2023-02-11T13:09:34;162.07;;;52.03;;
2305;SDS011;1161;51.922;8.896;2023-02-11T13:12:04;170.07;;;51.37;;
2305;SDS011;1161;51.922;8.896;2023-02-11T13:14:55;169.50;;;53.60;;
2305;SDS011;1161;51.922;8.896;2023-02-11T13:17:24;178.77;;;55.47;;
2305;SDS011;1161;51.922;8.896;2023-02-11T13:19:57;160.93;;;53.67;;
2305;SDS011;1161;51.922;8.896;2023-02-11T13:22:26;150.83;;;51.30;;
2305;SDS011;1161;51.922;8.896;2023-02-11T13:24:57;147.53;;;48.40;;
2305;SDS011;1161;51.922;8.896;2023-02-11T13:27:29;141.27;;;49.30;;
2305;SDS011;1161;51.922;8.896;2023-02-11T13:30:15;186.03;;;57.10;;
2305;SDS011;1161;51.922;8.896;2023-02-11T13:33:03;175.63;;;54.90;;
2305;SDS011;1161;51.922;8.896;2023-02-11T13:35:46;146.70;;;52.03;;
2305;SDS011;1161;51.922;8.896;2023-02-11T13:38:19;158.97;;;53.17;;
2305;SDS011;1161;51.922;8.896;2023-02-11T13:40:56;157.10;;;53.83;;
2305;SDS011;1161;51.922;8.896;2023-02-11T13:43:25;163.10;;;56.07;;
2305;SDS011;1161;51.922;8.896;2023-02-11T13:45:57;167.23;;;56.23;;
2305;SDS011;1161;51.922;8.896;2023-02-11T13:48:26;164.43;;;53.73;;
2305;SDS011;1161;51.922;8.896;2023-02-11T13:50:55;165.43;;;51.13;;
2305;SDS011;1161;51.922;8.896;2023-02-11T13:53:23;145.77;;;51.53;;
2305;SDS011;1161;51.922;8.896;2023-02-11T13:55:50;147.67;;;52.47;;
2305;SDS011;1161;51.922;8.896;2023-02-11T13:58:18;157.70;;;51.17;;
2305;SDS011;1161;51.922;8.896;2023-02-11T14:01:02;153.87;;;50.27;;
2305;SDS011;1161;51.922;8.896;2023-02-11T14:03:30;155.60;;;53.43;;
2305;SDS011;1161;51.922;8.896;2023-02-11T14:06:22;139.17;;;48.27;;
2305;SDS011;1161;51.922;8.896;2023-02-11T14:12:15;129.67;;;47.40;;
2305;SDS011;1161;51.922;8.896;2023-02-11T14:14:57;157.20;;;47.27;;
2305;SDS011;1161;51.922;8.896;2023-02-11T14:17:27;130.73;;;47.70;;
2305;SDS011;1161;51.922;8.896;2023-02-11T14:19:56;149.67;;;46.90;;
2305;SDS011;1161;51.922;8.896;2023-02-11T14:22:24;137.73;;;48.13;;
2305;SDS011;1161;51.922;8.896;2023-02-11T14:24:53;132.40;;;45.27;;
2305;SDS011;1161;51.922;8.896;2023-02-11T14:27:26;125.67;;;45.07;;
2305;SDS011;1161;51.922;8.896;2023-02-11T14:29:59;125.70;;;47.13;;
2305;SDS011;1161;51.922;8.896;2023-02-11T14:32:37;124.60;;;43.50;;
2305;SDS011;1161;51.922;8.896;2023-02-11T14:35:11;109.77;;;45.10;;
2305;SDS011;1161;51.922;8.896;2023-02-11T14:37:44;121.60;;;41.97;;
2305;SDS011;1161;51.922;8.896;2023-02-11T14:40:16;116.40;;;41.17;;
2305;SDS011;1161;51.922;8.896;2023-02-11T14:42:46;106.53;;;38.73;;
2305;SDS011;1161;51.922;8.896;2023-02-11T14:45:15;113.10;;;41.23;;
2305;SDS011;1161;51.922;8.896;2023-02-11T14:47:45;115.10;;;39.47;;
2305;SDS011;1161;51.922;8.896;2023-02-11T14:50:17;130.03;;;45.90;;
2305;SDS011;1161;51.922;8.896;2023-02-11T14:52:45;145.83;;;42.43;;
2305;SDS011;1161;51.922;8.896;2023-02-11T14:55:14;116.30;;;40.10;;
2305;SDS011;1161;51.922;8.896;2023-02-11T14:57:43;102.90;;;42.67;;
2305;SDS011;1161;51.922;8.896;2023-02-11T15:00:16;126.87;;;48.00;;
2305;SDS011;1161;51.922;8.896;2023-02-11T15:02:45;104.30;;;41.90;;
2305;SDS011;1161;51.922;8.896;2023-02-11T15:05:12;114.03;;;45.47;;
2305;SDS011;1161;51.922;8.896;2023-02-11T15:07:42;120.10;;;39.60;;
2305;SDS011;1161;51.922;8.896;2023-02-11T15:12:43;117.43;;;40.80;;